createdAt,value
2019-05-21T00:02:22.968Z,12.23
2019-05-21T00:04:50.267Z,13.93
2019-05-21T00:07:17.615Z,13.75
2019-05-21T00:09:44.898Z,12.50
2019-05-21T00:12:12.185Z,11.33
2019-05-21T00:14:39.522Z,11.18
2019-05-21T00:17:06.811Z,12.75
2019-05-21T00:19:34.101Z,12.15
2019-05-21T00:22:01.417Z,11.73
2019-05-21T00:24:28.732Z,11.25
2019-05-21T00:26:56.098Z,11.65
2019-05-21T00:29:41.577Z,12.30
2019-05-21T00:32:26.821Z,12.43
2019-05-21T00:35:12.204Z,11.95
2019-05-21T00:37:57.634Z,12.13
2019-05-21T00:40:43.030Z,13.10
2019-05-21T00:43:10.378Z,13.32
2019-05-21T00:45:37.658Z,11.75
2019-05-21T00:48:05.898Z,11.83
2019-05-21T00:50:33.292Z,11.35
2019-05-21T00:53:00.602Z,12.47
2019-05-21T00:55:27.882Z,13.18
2019-05-21T00:57:55.212Z,13.05
2019-05-21T01:00:22.504Z,14.30
2019-05-21T01:02:49.804Z,13.43
2019-05-21T01:05:17.130Z,11.40
2019-05-21T01:07:44.436Z,12.55
2019-05-21T01:10:11.724Z,11.65
2019-05-21T01:12:39.042Z,12.58
2019-05-21T01:15:06.339Z,12.90
2019-05-21T01:17:33.626Z,13.65
2019-05-21T01:20:00.956Z,12.70
2019-05-21T01:22:28.271Z,11.97
2019-05-21T01:24:55.572Z,12.13
2019-05-21T01:27:22.890Z,13.25
2019-05-21T01:29:50.223Z,14.68
2019-05-21T01:32:17.530Z,11.70
2019-05-21T01:34:44.833Z,12.88
2019-05-21T01:37:12.164Z,11.18
2019-05-21T01:39:39.462Z,14.03
2019-05-21T01:42:06.763Z,13.13
2019-05-21T01:44:34.073Z,11.30
2019-05-21T01:47:01.387Z,12.43
2019-05-21T01:49:28.679Z,12.10
2019-05-21T01:51:56.002Z,12.28
2019-05-21T01:54:23.285Z,12.98
2019-05-21T01:56:50.572Z,13.38
2019-05-21T01:59:17.899Z,12.80
2019-05-21T02:01:45.181Z,13.10
2019-05-21T02:04:12.475Z,13.25
2019-05-21T02:06:39.872Z,13.45
2019-05-21T02:09:07.533Z,14.40
2019-05-21T02:11:34.821Z,14.80
2019-05-21T02:14:02.170Z,13.30
2019-05-21T02:16:29.451Z,15.05
2019-05-21T02:22:05.814Z,14.15
2019-05-21T02:24:33.107Z,14.78
2019-05-21T02:27:00.411Z,14.73
2019-05-21T02:29:27.727Z,12.55
2019-05-21T02:31:55.018Z,14.05
2019-05-21T02:34:22.326Z,14.15
2019-05-21T02:36:49.649Z,13.50
2019-05-21T02:39:16.955Z,11.03
2019-05-21T02:41:44.257Z,12.68
2019-05-21T02:44:11.565Z,11.60
2019-05-21T02:46:38.868Z,9.90
2019-05-21T02:49:06.163Z,10.45
2019-05-21T02:51:33.487Z,10.90
2019-05-21T02:54:00.795Z,10.10
2019-05-21T02:56:28.100Z,10.78
2019-05-21T02:58:55.416Z,10.53
2019-05-21T03:01:24.355Z,11.68
2019-05-21T03:03:51.660Z,10.50
2019-05-21T03:06:18.991Z,11.73
2019-05-21T03:08:46.295Z,10.65
2019-05-21T03:11:13.590Z,10.40
2019-05-21T03:13:40.926Z,11.40
2019-05-21T03:16:08.292Z,12.60
2019-05-21T03:18:35.599Z,12.40
2019-05-21T03:21:02.926Z,10.63
2019-05-21T03:23:30.226Z,9.53
2019-05-21T03:25:57.526Z,11.10
2019-05-21T03:28:24.847Z,11.68
2019-05-21T03:30:52.130Z,12.55
2019-05-21T03:33:19.421Z,12.93
2019-05-21T03:35:46.855Z,11.12
2019-05-21T03:38:14.170Z,12.37
2019-05-21T03:41:00.894Z,14.03
2019-05-21T03:43:28.220Z,14.23
2019-05-21T03:45:55.544Z,13.43
2019-05-21T03:48:22.841Z,13.48
2019-05-21T03:50:50.138Z,13.22
2019-05-21T03:53:17.454Z,14.68
2019-05-21T03:55:44.751Z,14.18
2019-05-21T03:58:12.070Z,13.62
2019-05-21T04:00:39.391Z,11.22
2019-05-21T04:03:06.679Z,13.48
2019-05-21T04:05:34.003Z,12.82
2019-05-21T04:08:01.288Z,11.83
2019-05-21T04:10:28.589Z,12.82
2019-05-21T04:13:08.042Z,11.57
2019-05-21T04:15:37.865Z,12.70
2019-05-21T04:18:06.824Z,12.47
2019-05-21T04:20:34.128Z,11.40
2019-05-21T04:23:01.429Z,10.85
2019-05-21T04:25:28.746Z,10.98
2019-05-21T04:27:56.043Z,9.65
2019-05-21T04:30:23.359Z,9.70
2019-05-21T04:32:50.651Z,9.75
2019-05-21T04:35:17.978Z,10.25
2019-05-21T04:37:45.278Z,9.23
2019-05-21T04:40:12.597Z,8.58
2019-05-21T04:42:39.891Z,9.70
2019-05-21T04:45:07.258Z,8.30
2019-05-21T04:47:34.574Z,8.13
2019-05-21T04:50:01.886Z,7.47
2019-05-21T04:52:29.175Z,7.10
2019-05-21T04:54:56.499Z,7.95
2019-05-21T04:57:23.789Z,6.60
2019-05-21T04:59:51.077Z,6.35
2019-05-21T05:02:18.387Z,7.33
2019-05-21T05:04:45.680Z,6.92
2019-05-21T05:07:27.116Z,6.95
2019-05-21T05:09:41.926Z,6.00
2019-05-21T05:12:09.230Z,6.62
2019-05-21T05:14:36.555Z,6.33
2019-05-21T05:17:03.851Z,7.17
2019-05-21T05:19:31.155Z,6.58
2019-05-21T05:21:58.459Z,5.92
2019-05-21T05:24:25.757Z,6.45
2019-05-21T05:26:53.062Z,6.53
2019-05-21T05:29:20.382Z,7.42
2019-05-21T05:31:47.667Z,6.30
2019-05-21T05:34:14.949Z,6.70
2019-05-21T05:36:42.283Z,7.25
2019-05-21T05:39:09.564Z,6.22
2019-05-21T05:41:36.881Z,6.28
2019-05-21T05:44:04.242Z,8.33
2019-05-21T05:46:31.521Z,6.40
2019-05-21T05:49:01.847Z,8.88
2019-05-21T05:51:29.274Z,9.25
2019-05-21T05:53:59.322Z,10.10
2019-05-21T05:56:27.089Z,11.97
2019-05-21T05:58:54.457Z,11.63
2019-05-21T06:01:21.834Z,9.03
2019-05-21T06:03:49.114Z,7.22
2019-05-21T06:06:16.399Z,5.92
2019-05-21T06:08:43.723Z,6.83
2019-05-21T06:11:11.021Z,7.40
2019-05-21T06:13:38.340Z,6.97
2019-05-21T06:16:05.618Z,6.25
2019-05-21T06:18:35.536Z,4.05
2019-05-21T06:21:01.906Z,5.65
2019-05-21T06:23:29.219Z,5.72
2019-05-21T06:25:56.516Z,7.00
2019-05-21T06:28:23.803Z,7.42
2019-05-21T06:30:51.121Z,6.87
2019-05-21T06:33:18.410Z,8.30
2019-05-21T06:35:45.890Z,5.50
2019-05-21T06:38:17.796Z,4.83
2019-05-21T06:40:42.142Z,5.65
2019-05-21T06:43:09.465Z,4.53
2019-05-21T06:45:36.798Z,4.05
2019-05-21T06:48:04.136Z,4.20
2019-05-21T06:50:31.422Z,4.30
2019-05-21T06:52:58.698Z,4.22
2019-05-21T06:55:26.013Z,5.97
2019-05-21T06:57:53.311Z,4.15
2019-05-21T07:00:20.665Z,3.77
2019-05-21T07:02:47.975Z,4.15
2019-05-21T07:05:15.263Z,3.60
2019-05-21T07:07:42.588Z,4.95
2019-05-21T07:10:09.861Z,4.10
2019-05-21T07:12:37.146Z,3.90
2019-05-21T07:15:05.626Z,4.50
2019-05-21T07:17:32.920Z,3.25
2019-05-21T07:20:00.239Z,4.55
2019-05-21T07:22:27.521Z,5.85
2019-05-21T07:24:54.816Z,4.65
2019-05-21T07:27:22.117Z,3.30
2019-05-21T07:29:49.413Z,4.30
2019-05-21T07:32:16.718Z,2.90
2019-05-21T07:34:44.139Z,3.70
2019-05-21T07:37:11.539Z,4.33
2019-05-21T07:39:38.833Z,3.72
2019-05-21T07:42:06.143Z,5.05
2019-05-21T07:44:33.436Z,3.52
2019-05-21T07:47:00.752Z,4.70
2019-05-21T07:49:28.046Z,4.72
2019-05-21T07:51:55.356Z,5.50
2019-05-21T07:54:22.672Z,4.25
2019-05-21T07:56:49.980Z,2.80
2019-05-21T07:59:17.267Z,2.42
2019-05-21T08:01:44.561Z,2.75
2019-05-21T08:04:11.875Z,2.10
2019-05-21T08:06:39.161Z,3.05
2019-05-21T08:09:13.504Z,3.58
2019-05-21T08:11:35.406Z,2.80
2019-05-21T08:14:02.723Z,3.62
2019-05-21T08:16:30.019Z,3.35
2019-05-21T08:18:57.330Z,3.27
2019-05-21T08:21:24.627Z,4.60
2019-05-21T08:23:51.931Z,3.47
2019-05-21T08:26:19.230Z,3.75
2019-05-21T08:28:46.534Z,4.15
2019-05-21T08:31:13.825Z,3.52
2019-05-21T08:33:41.145Z,3.15
2019-05-21T08:36:08.433Z,2.90
2019-05-21T08:38:35.723Z,2.80
2019-05-21T08:41:03.048Z,2.55
2019-05-21T08:43:30.334Z,3.10
2019-05-21T08:45:57.638Z,2.45
2019-05-21T08:48:24.921Z,4.42
2019-05-21T08:50:52.259Z,3.22
2019-05-21T08:53:19.550Z,3.70
2019-05-21T08:55:46.915Z,3.75
2019-05-21T08:58:14.154Z,3.27
2019-05-21T09:00:41.529Z,3.30
2019-05-21T09:03:08.814Z,3.35
2019-05-21T09:05:36.293Z,3.47
2019-05-21T09:08:03.608Z,4.05
2019-05-21T09:10:30.918Z,4.42
2019-05-21T09:12:58.208Z,4.40
2019-05-21T09:15:25.530Z,5.20
2019-05-21T09:17:52.818Z,3.08
2019-05-21T09:20:20.106Z,3.92
2019-05-21T09:22:47.413Z,5.10
2019-05-21T09:25:14.749Z,3.85
2019-05-21T09:27:42.028Z,4.65
2019-05-21T09:30:09.590Z,5.95
2019-05-21T09:32:37.063Z,3.22
2019-05-21T09:35:05.361Z,3.65
2019-05-21T09:37:32.734Z,2.80
2019-05-21T09:40:00.077Z,3.30
2019-05-21T09:42:27.568Z,2.92
2019-05-21T09:44:54.875Z,3.27
2019-05-21T09:47:22.195Z,3.60
2019-05-21T09:49:49.479Z,3.62
2019-05-21T09:52:16.800Z,3.17
2019-05-21T09:54:44.084Z,3.58
2019-05-21T09:57:13.042Z,3.80
2019-05-21T09:59:51.019Z,3.87
2019-05-21T10:02:19.985Z,4.20
2019-05-21T10:04:47.264Z,6.08
2019-05-21T10:07:14.571Z,3.83
2019-05-21T10:09:41.879Z,3.77
2019-05-21T10:12:09.362Z,3.22
2019-05-21T10:14:36.655Z,3.62
2019-05-21T10:17:03.937Z,2.00
2019-05-21T10:19:31.254Z,2.15
2019-05-21T10:21:58.554Z,2.50
2019-05-21T10:24:25.862Z,2.90
2019-05-21T10:26:53.141Z,3.20
2019-05-21T10:29:20.456Z,2.85
2019-05-21T10:31:47.754Z,2.30
2019-05-21T10:34:15.047Z,3.15
2019-05-21T10:36:42.345Z,3.33
2019-05-21T10:39:09.672Z,3.17
2019-05-21T10:41:36.948Z,2.70
2019-05-21T10:44:04.305Z,3.20
2019-05-21T10:46:31.640Z,3.42
2019-05-21T10:48:58.933Z,2.80
2019-05-21T10:51:26.242Z,4.10
2019-05-21T10:53:53.531Z,3.90
2019-05-21T10:56:20.833Z,4.55
2019-05-21T10:58:48.156Z,4.58
2019-05-21T11:01:32.042Z,4.33
2019-05-21T11:04:13.049Z,5.03
2019-05-21T11:06:41.901Z,5.72
2019-05-21T11:09:10.828Z,5.55
2019-05-21T11:11:38.156Z,5.47
2019-05-21T11:14:05.430Z,5.67
2019-05-21T11:16:32.727Z,6.62
2019-05-21T11:19:00.042Z,5.90
2019-05-21T11:21:27.353Z,5.40
2019-05-21T11:23:54.686Z,5.60
2019-05-21T11:26:21.972Z,5.05
2019-05-21T11:28:49.353Z,5.60
2019-05-21T11:31:16.690Z,5.40
2019-05-21T11:33:44.683Z,5.22
2019-05-21T11:36:12.822Z,5.15
2019-05-21T11:38:40.562Z,4.58
2019-05-21T11:41:07.873Z,4.95
2019-05-21T11:43:35.142Z,5.62
2019-05-21T11:46:03.256Z,6.90
2019-05-21T11:48:30.689Z,6.17
2019-05-21T11:50:57.966Z,4.28
2019-05-21T11:53:25.299Z,5.62
2019-05-21T11:55:52.586Z,5.35
2019-05-21T11:58:19.932Z,7.53
2019-05-21T12:00:47.232Z,9.48
2019-05-21T12:03:14.532Z,8.55
2019-05-21T12:05:41.831Z,10.23
2019-05-21T12:08:09.157Z,9.75
2019-05-21T12:10:36.448Z,10.50
2019-05-21T12:13:03.801Z,13.08
2019-05-21T12:15:31.194Z,11.28
2019-05-21T12:17:58.479Z,13.03
2019-05-21T12:20:35.906Z,13.93
2019-05-21T12:22:54.785Z,14.45
2019-05-21T12:25:22.100Z,12.63
2019-05-21T12:27:49.425Z,13.83
2019-05-21T12:30:16.755Z,13.70
2019-05-21T12:32:44.046Z,14.78
2019-05-21T12:35:11.347Z,16.25
2019-05-21T12:37:38.685Z,17.77
2019-05-21T12:40:06.239Z,18.48
2019-05-21T12:42:33.539Z,16.73
2019-05-21T12:45:00.862Z,16.15
2019-05-21T12:47:28.160Z,15.35
2019-05-21T12:49:55.485Z,17.23
2019-05-21T12:52:22.801Z,16.10
2019-05-21T12:54:50.123Z,16.35
2019-05-21T12:57:17.450Z,16.40
2019-05-21T12:59:44.741Z,16.70
2019-05-21T13:02:12.047Z,16.75
2019-05-21T13:04:39.367Z,16.77
2019-05-21T13:07:06.744Z,18.73
2019-05-21T13:09:34.041Z,20.12
2019-05-21T13:12:01.359Z,18.40
2019-05-21T13:14:28.656Z,17.32
2019-05-21T13:16:55.956Z,16.60
2019-05-21T13:19:23.249Z,17.80
2019-05-21T13:21:50.578Z,15.78
2019-05-21T13:24:17.888Z,16.85
2019-05-21T13:26:45.219Z,16.65
2019-05-21T13:29:12.518Z,18.23
2019-05-21T13:31:39.906Z,16.87
2019-05-21T13:34:07.128Z,14.28
2019-05-21T13:36:34.463Z,14.30
2019-05-21T13:39:01.798Z,14.98
2019-05-21T13:41:29.102Z,16.82
2019-05-21T13:43:56.424Z,18.40
2019-05-21T13:46:23.813Z,14.00
2019-05-21T13:48:51.120Z,13.40
2019-05-21T13:51:18.432Z,12.40
2019-05-21T13:53:45.774Z,13.28
2019-05-21T13:56:13.082Z,14.20
2019-05-21T13:58:40.391Z,17.45
2019-05-21T14:01:07.881Z,15.88
2019-05-21T14:03:35.192Z,18.77
2019-05-21T14:06:02.490Z,18.23
2019-05-21T14:08:29.888Z,17.23
2019-05-21T14:10:57.124Z,16.00
2019-05-21T14:13:24.448Z,18.85
2019-05-21T14:15:51.757Z,16.60
2019-05-21T14:18:19.204Z,15.10
2019-05-21T14:20:46.500Z,15.63
2019-05-21T14:23:13.855Z,12.85
2019-05-21T14:25:41.179Z,12.10
2019-05-21T14:28:08.470Z,11.30
2019-05-21T14:30:35.790Z,13.15
2019-05-21T14:33:03.098Z,7.97
2019-05-21T14:35:30.398Z,11.65
2019-05-21T14:37:57.859Z,9.18
2019-05-21T14:40:31.880Z,10.35
2019-05-21T14:43:00.125Z,9.60
2019-05-21T14:45:23.047Z,9.30
2019-05-21T14:47:50.357Z,8.90
2019-05-21T14:50:17.643Z,9.35
2019-05-21T14:52:44.949Z,10.15
2019-05-21T14:55:12.277Z,8.98
2019-05-21T14:57:39.561Z,5.90
2019-05-21T15:00:08.568Z,6.90
2019-05-21T15:02:37.142Z,7.00
2019-05-21T15:05:04.941Z,7.78
2019-05-21T15:07:32.243Z,8.15
2019-05-21T15:09:59.560Z,7.55
2019-05-21T15:12:26.846Z,9.08
2019-05-21T15:14:54.179Z,8.33
2019-05-21T15:17:21.474Z,7.70
2019-05-21T15:19:50.403Z,8.43
2019-05-21T15:22:17.712Z,6.95
2019-05-21T15:24:44.998Z,7.35
2019-05-21T15:27:12.315Z,9.28
2019-05-21T15:29:39.613Z,8.15
2019-05-21T15:32:06.916Z,8.78
2019-05-21T15:34:34.235Z,12.10
2019-05-21T15:37:01.532Z,9.93
2019-05-21T15:39:28.870Z,11.18
2019-05-21T15:41:56.166Z,13.80
2019-05-21T15:44:23.468Z,13.22
2019-05-21T15:46:52.048Z,12.63
2019-05-21T15:49:35.066Z,14.95
2019-05-21T15:51:48.486Z,15.10
2019-05-21T15:54:15.797Z,12.53
2019-05-21T15:56:43.126Z,11.65
2019-05-21T15:59:10.438Z,14.35
2019-05-21T16:01:40.539Z,14.20
2019-05-21T16:04:06.703Z,14.73
2019-05-21T16:06:34.005Z,14.10
2019-05-21T16:09:01.382Z,13.48
2019-05-21T16:11:29.355Z,15.10
2019-05-21T16:13:56.731Z,15.03
2019-05-21T16:16:24.051Z,13.70
2019-05-21T16:18:51.423Z,12.60
2019-05-21T16:21:18.713Z,15.78
2019-05-21T16:23:46.031Z,17.05
2019-05-21T16:26:13.325Z,14.83
2019-05-21T16:28:40.617Z,14.20
2019-05-21T16:31:07.930Z,14.50
2019-05-21T16:33:35.221Z,14.23
2019-05-21T16:36:02.650Z,14.05
2019-05-21T16:38:29.973Z,12.63
2019-05-21T16:40:57.277Z,14.40
2019-05-21T16:43:24.576Z,17.48
2019-05-21T16:45:51.889Z,28.17
2019-05-21T16:48:19.180Z,26.30
2019-05-21T16:50:46.483Z,24.32
2019-05-21T16:53:13.798Z,25.00
2019-05-21T16:55:41.105Z,27.02
2019-05-21T16:58:08.416Z,27.10
2019-05-21T17:00:35.706Z,25.62
2019-05-21T17:03:03.035Z,30.70
2019-05-21T17:05:30.411Z,23.50
2019-05-21T17:07:57.789Z,25.72
2019-05-21T17:10:25.082Z,20.85
2019-05-21T17:12:52.404Z,20.95
2019-05-21T17:15:19.703Z,18.27
2019-05-21T17:17:47.008Z,18.57
2019-05-21T17:20:14.347Z,19.50
2019-05-21T17:22:41.736Z,20.72
2019-05-21T17:25:09.113Z,16.10
2019-05-21T17:27:36.448Z,16.70
2019-05-21T17:30:09.725Z,17.32
2019-05-21T17:32:36.966Z,16.50
2019-05-21T17:35:05.366Z,17.05
2019-05-21T17:37:32.678Z,17.75
2019-05-21T17:39:59.966Z,16.93
2019-05-21T17:42:27.304Z,18.45
2019-05-21T17:44:54.611Z,16.57
2019-05-21T17:47:21.994Z,19.60
2019-05-21T17:49:49.313Z,20.40
2019-05-21T17:52:16.618Z,20.00
2019-05-21T17:54:56.408Z,19.67
2019-05-21T17:57:12.891Z,17.95
2019-05-21T17:59:40.178Z,16.77
2019-05-21T18:02:09.105Z,19.92
2019-05-21T18:04:37.051Z,22.15
2019-05-21T18:07:05.160Z,21.52
2019-05-21T18:09:32.836Z,18.92
2019-05-21T18:12:00.198Z,19.15
2019-05-21T18:14:28.390Z,18.57
2019-05-21T18:16:55.961Z,18.15
2019-05-21T18:19:23.285Z,19.45
2019-05-21T18:21:50.916Z,20.52
2019-05-21T18:24:18.259Z,20.20
2019-05-21T18:26:45.600Z,17.65
2019-05-21T18:29:12.926Z,19.25
2019-05-21T18:31:40.595Z,17.45
2019-05-21T18:34:07.914Z,15.55
2019-05-21T18:36:35.356Z,16.75
2019-05-21T18:39:02.626Z,19.12
2019-05-21T18:41:29.958Z,17.42
2019-05-21T18:43:57.247Z,15.58
2019-05-21T18:46:24.560Z,19.17
2019-05-21T18:48:51.881Z,16.52
2019-05-21T18:51:19.202Z,15.40
2019-05-21T18:53:46.524Z,12.93
2019-05-21T18:56:13.819Z,14.58
2019-05-21T18:58:41.128Z,17.17
2019-05-21T19:01:08.448Z,17.00
2019-05-21T19:03:35.744Z,16.55
2019-05-21T19:06:03.054Z,16.50
2019-05-21T19:08:30.383Z,16.97
2019-05-21T19:10:57.675Z,17.62
2019-05-21T19:13:25.011Z,15.90
2019-05-21T19:15:52.334Z,10.90
2019-05-21T19:18:19.614Z,15.45
2019-05-21T19:20:49.870Z,11.48
2019-05-21T19:23:15.899Z,12.60
2019-05-21T19:25:43.195Z,12.73
2019-05-21T19:28:10.530Z,12.68
2019-05-21T19:30:37.995Z,13.10
2019-05-21T19:33:05.298Z,12.00
2019-05-21T19:35:33.319Z,10.80
2019-05-21T19:38:00.609Z,10.82
2019-05-21T19:40:27.933Z,11.12
2019-05-21T19:42:55.775Z,11.40
2019-05-21T19:45:23.126Z,11.00
2019-05-21T19:47:50.448Z,10.05
2019-05-21T19:50:17.789Z,10.05
2019-05-21T19:52:45.079Z,10.43
2019-05-21T19:55:12.354Z,10.45
2019-05-21T19:57:40.158Z,11.33
2019-05-21T20:00:07.570Z,9.80
2019-05-21T20:02:34.835Z,9.58
2019-05-21T20:05:02.145Z,10.40
2019-05-21T20:07:29.456Z,10.20
2019-05-21T20:09:56.778Z,11.18
2019-05-21T20:12:24.650Z,11.90
2019-05-21T20:14:52.031Z,11.45
2019-05-21T20:17:19.387Z,9.60
2019-05-21T20:19:47.552Z,11.25
2019-05-21T20:22:15.348Z,10.93
2019-05-21T20:24:42.656Z,10.10
2019-05-21T20:27:09.954Z,10.60
2019-05-21T20:29:37.534Z,9.75
2019-05-21T20:32:06.727Z,10.53
2019-05-21T20:34:34.093Z,9.20
2019-05-21T20:37:01.857Z,8.90
2019-05-21T20:39:30.775Z,8.38
2019-05-21T20:41:58.273Z,8.98
2019-05-21T20:44:25.838Z,7.92
2019-05-21T20:46:55.023Z,8.55
2019-05-21T20:49:22.382Z,9.13
2019-05-21T20:51:49.941Z,9.80
2019-05-21T20:54:18.874Z,8.30
2019-05-21T20:56:46.192Z,8.75
2019-05-21T20:59:13.484Z,8.93
2019-05-21T21:01:40.783Z,9.33
2019-05-21T21:04:09.177Z,8.78
2019-05-21T21:06:36.796Z,8.00
2019-05-21T21:09:06.595Z,9.40
2019-05-21T21:11:33.914Z,7.30
2019-05-21T21:14:17.051Z,8.75
2019-05-21T21:16:31.028Z,9.63
2019-05-21T21:18:58.400Z,10.25
2019-05-21T21:21:25.859Z,10.23
2019-05-21T21:23:56.414Z,10.03
2019-05-21T21:26:22.786Z,11.20
2019-05-21T21:28:50.115Z,10.82
2019-05-21T21:31:18.292Z,10.53
2019-05-21T21:33:45.632Z,10.10
2019-05-21T21:36:12.929Z,12.23
2019-05-21T21:38:40.242Z,11.25
2019-05-21T21:41:07.636Z,11.18
2019-05-21T21:43:34.931Z,12.35
2019-05-21T21:46:02.221Z,12.37
2019-05-21T21:48:29.825Z,12.47
2019-05-21T21:50:57.384Z,12.15
2019-05-21T21:53:24.692Z,12.98
2019-05-21T21:55:52.019Z,12.63
2019-05-21T21:58:19.318Z,12.18
2019-05-21T22:01:04.349Z,13.50
2019-05-21T22:03:32.290Z,14.50
2019-05-21T22:06:00.254Z,14.63
2019-05-21T22:08:28.415Z,13.88
2019-05-21T22:10:56.384Z,14.85
2019-05-21T22:13:23.855Z,14.80
2019-05-21T22:15:51.185Z,14.18
2019-05-21T22:18:18.756Z,14.53
2019-05-21T22:20:46.055Z,15.23
2019-05-21T22:23:13.545Z,16.60
2019-05-21T22:25:40.842Z,17.45
2019-05-21T22:28:08.137Z,15.98
2019-05-21T22:30:36.030Z,18.37
2019-05-21T22:33:03.339Z,17.80
2019-05-21T22:35:30.668Z,15.38
2019-05-21T22:37:57.962Z,18.02
2019-05-21T22:40:25.389Z,18.30
2019-05-21T22:42:52.723Z,18.37
2019-05-21T22:45:20.018Z,18.85
2019-05-21T22:47:47.335Z,18.27
2019-05-21T22:50:14.797Z,18.48
2019-05-21T22:52:42.090Z,19.20
2019-05-21T22:55:09.637Z,17.77
2019-05-21T22:57:36.945Z,13.95
2019-05-21T23:00:04.963Z,17.60
2019-05-21T23:02:33.998Z,16.00
2019-05-21T23:05:01.311Z,17.90
2019-05-21T23:07:28.601Z,19.35
2019-05-21T23:09:56.861Z,16.35
2019-05-21T23:12:24.637Z,18.45
2019-05-21T23:14:52.112Z,19.45
2019-05-21T23:17:19.425Z,18.80
2019-05-21T23:19:47.097Z,15.90
2019-05-21T23:22:16.043Z,17.70
2019-05-21T23:24:43.345Z,17.12
2019-05-21T23:27:12.125Z,19.45
2019-05-21T23:29:39.601Z,18.27
2019-05-21T23:32:08.361Z,18.45
2019-05-21T23:34:36.855Z,19.87
2019-05-21T23:37:05.242Z,18.02
2019-05-21T23:39:34.170Z,17.17
2019-05-21T23:42:01.509Z,18.55
2019-05-21T23:44:28.967Z,18.92
2019-05-21T23:46:56.564Z,18.73
2019-05-21T23:49:23.856Z,18.90
2019-05-21T23:51:51.173Z,18.52
2019-05-21T23:54:18.490Z,14.98
2019-05-21T23:56:46.054Z,18.02
2019-05-21T23:59:13.519Z,16.70
